createdAt,value
2023-04-30T00:02:24.046Z,4.90
2023-04-30T00:04:51.067Z,5.63
2023-04-30T00:07:17.810Z,4.70
2023-04-30T00:09:44.602Z,5.82
2023-04-30T00:12:11.437Z,4.45
2023-04-30T00:14:38.165Z,4.45
2023-04-30T00:17:04.938Z,9.23
2023-04-30T00:19:31.686Z,5.53
2023-04-30T00:21:58.470Z,5.70
2023-04-30T00:24:25.267Z,5.90
2023-04-30T00:26:51.991Z,6.13
2023-04-30T00:29:18.951Z,7.38
2023-04-30T00:31:45.891Z,6.85
2023-04-30T00:34:12.700Z,9.40
2023-04-30T00:36:40.689Z,7.00
2023-04-30T00:39:07.512Z,6.50
2023-04-30T00:41:36.085Z,6.25
2023-04-30T00:44:03.160Z,7.18
2023-04-30T00:46:31.025Z,7.85
2023-04-30T00:48:58.232Z,6.55
2023-04-30T00:51:25.183Z,10.27
2023-04-30T00:53:52.038Z,8.18
2023-04-30T00:56:18.988Z,7.78
2023-04-30T00:58:46.028Z,8.18
2023-04-30T01:01:12.928Z,7.43
2023-04-30T01:03:39.983Z,6.97
2023-04-30T01:06:06.859Z,8.07
2023-04-30T01:08:34.213Z,6.50
2023-04-30T01:11:17.603Z,8.00
2023-04-30T01:14:03.023Z,6.97
2023-04-30T01:16:36.242Z,7.80
2023-04-30T01:19:12.024Z,10.32
2023-04-30T01:21:41.871Z,9.57
2023-04-30T01:24:15.242Z,8.48
2023-04-30T01:27:07.165Z,7.70
2023-04-30T01:29:35.213Z,7.05
2023-04-30T01:32:02.876Z,9.50
2023-04-30T01:34:29.590Z,12.73
2023-04-30T01:37:17.853Z,11.77
2023-04-30T01:39:50.675Z,8.65
2023-04-30T01:42:22.717Z,7.55
2023-04-30T01:45:07.463Z,9.82
2023-04-30T01:47:38.396Z,7.20
2023-04-30T01:50:14.184Z,8.15
2023-04-30T01:52:47.103Z,8.82
2023-04-30T01:55:21.534Z,8.70
2023-04-30T01:57:58.734Z,12.68
2023-04-30T02:00:30.816Z,7.07
2023-04-30T02:02:58.528Z,9.85
2023-04-30T02:05:25.710Z,10.93
2023-04-30T02:07:52.879Z,8.57
2023-04-30T02:10:22.320Z,10.05
2023-04-30T02:12:49.190Z,27.35
2023-04-30T02:15:16.363Z,33.47
2023-04-30T02:17:43.223Z,13.50
2023-04-30T02:20:10.596Z,11.15
2023-04-30T02:22:37.787Z,8.55
2023-04-30T02:25:04.868Z,10.65
2023-04-30T02:27:33.175Z,8.55
2023-04-30T02:30:00.581Z,9.27
2023-04-30T02:32:27.453Z,12.45
2023-04-30T02:34:54.232Z,8.05
2023-04-30T02:37:21.225Z,9.82
2023-04-30T02:39:47.955Z,8.25
2023-04-30T02:42:14.699Z,12.35
2023-04-30T02:44:41.967Z,9.40
2023-04-30T02:47:08.662Z,10.57
2023-04-30T02:49:35.681Z,10.15
2023-04-30T02:52:02.540Z,9.35
2023-04-30T02:54:29.270Z,8.20
2023-04-30T02:56:56.793Z,8.77
2023-04-30T02:59:23.494Z,7.95
2023-04-30T03:01:50.345Z,9.95
2023-04-30T03:04:17.117Z,7.63
2023-04-30T03:06:43.955Z,7.57
2023-04-30T03:09:10.782Z,8.90
2023-04-30T03:11:37.911Z,9.35
2023-04-30T03:14:07.878Z,8.65
2023-04-30T03:16:34.674Z,11.02
2023-04-30T03:19:01.384Z,12.80
2023-04-30T03:21:28.257Z,9.93
2023-04-30T03:23:54.988Z,13.27
2023-04-30T03:26:22.291Z,9.80
2023-04-30T03:28:49.535Z,8.35
2023-04-30T03:31:16.328Z,9.18
2023-04-30T03:33:43.151Z,10.63
2023-04-30T03:36:09.969Z,12.93
2023-04-30T03:38:36.704Z,9.88
2023-04-30T03:41:04.018Z,9.43
2023-04-30T03:43:30.884Z,7.22
2023-04-30T03:45:58.000Z,8.75
2023-04-30T03:48:24.724Z,8.45
2023-04-30T03:50:51.633Z,9.02
2023-04-30T03:53:18.464Z,9.40
2023-04-30T03:55:45.575Z,9.18
2023-04-30T03:58:12.313Z,13.20
2023-04-30T04:00:41.808Z,9.63
2023-04-30T04:03:08.671Z,9.27
2023-04-30T04:05:35.451Z,9.30
2023-04-30T04:08:02.188Z,10.23
2023-04-30T04:10:29.251Z,15.10
2023-04-30T04:12:55.933Z,10.30
2023-04-30T04:15:22.641Z,10.10
2023-04-30T04:17:49.411Z,11.23
2023-04-30T04:20:16.147Z,9.18
2023-04-30T04:22:42.828Z,10.48
2023-04-30T04:25:10.649Z,11.63
2023-04-30T04:27:37.437Z,10.60
2023-04-30T04:30:04.491Z,11.10
2023-04-30T04:32:32.843Z,13.93
2023-04-30T04:34:59.665Z,12.15
2023-04-30T04:37:26.417Z,10.75
2023-04-30T04:39:53.392Z,11.23
2023-04-30T04:42:20.689Z,10.68
2023-04-30T04:44:47.385Z,13.00
2023-04-30T04:47:14.150Z,11.93
2023-04-30T04:49:40.967Z,9.68
2023-04-30T04:52:07.770Z,13.55
2023-04-30T04:54:34.869Z,9.27
2023-04-30T04:57:03.174Z,13.50
2023-04-30T04:59:30.119Z,9.30
2023-04-30T05:01:56.932Z,13.55
2023-04-30T05:04:23.734Z,12.35
2023-04-30T05:06:50.483Z,10.23
2023-04-30T05:09:17.709Z,12.82
2023-04-30T05:11:46.381Z,13.07
2023-04-30T05:14:13.105Z,15.75
2023-04-30T05:16:40.378Z,13.02
2023-04-30T05:19:09.879Z,12.80
2023-04-30T05:21:36.642Z,11.45
2023-04-30T05:24:03.941Z,9.65
2023-04-30T05:26:30.956Z,13.00
2023-04-30T05:28:57.848Z,11.25
2023-04-30T05:31:24.701Z,9.98
2023-04-30T05:33:51.462Z,11.40
2023-04-30T05:36:18.227Z,10.02
2023-04-30T05:38:45.296Z,10.55
2023-04-30T05:41:12.944Z,12.80
2023-04-30T05:43:39.756Z,10.23
2023-04-30T05:46:06.806Z,13.60
2023-04-30T05:48:33.685Z,11.98
2023-04-30T05:51:00.465Z,9.80
2023-04-30T05:53:27.197Z,11.88
2023-04-30T05:55:53.925Z,11.98
2023-04-30T05:58:20.713Z,12.23
2023-04-30T06:00:52.424Z,10.70
2023-04-30T06:03:19.785Z,11.48
2023-04-30T06:05:47.975Z,8.98
2023-04-30T06:08:14.857Z,7.72
2023-04-30T06:10:42.028Z,10.35
2023-04-30T06:13:08.776Z,10.73
2023-04-30T06:15:35.612Z,9.30
2023-04-30T06:18:02.381Z,12.13
2023-04-30T06:20:29.252Z,10.05
2023-04-30T06:22:56.023Z,9.77
2023-04-30T06:25:22.806Z,19.42
2023-04-30T06:27:51.751Z,10.13
2023-04-30T06:30:18.553Z,14.23
2023-04-30T06:32:45.325Z,12.10
2023-04-30T06:35:12.082Z,13.80
2023-04-30T06:37:38.890Z,10.98
2023-04-30T06:40:06.649Z,10.70
2023-04-30T06:42:36.447Z,10.60
2023-04-30T06:45:04.083Z,12.32
2023-04-30T06:47:42.931Z,12.82
2023-04-30T06:50:10.004Z,12.30
2023-04-30T06:52:36.747Z,11.68
2023-04-30T06:55:03.675Z,11.40
2023-04-30T06:57:31.312Z,11.65
2023-04-30T06:59:58.027Z,12.43
2023-04-30T07:02:24.945Z,12.38
2023-04-30T07:04:51.752Z,14.52
2023-04-30T07:07:18.638Z,10.63
2023-04-30T07:09:45.337Z,9.85
2023-04-30T07:12:13.762Z,12.95
2023-04-30T07:14:40.801Z,9.65
2023-04-30T07:17:07.523Z,9.45
2023-04-30T07:19:34.279Z,10.88
2023-04-30T07:22:01.248Z,11.82
2023-04-30T07:24:28.156Z,10.93
2023-04-30T07:26:55.001Z,8.35
2023-04-30T07:29:21.850Z,8.80
2023-04-30T07:31:48.721Z,8.88
2023-04-30T07:34:15.564Z,8.32
2023-04-30T07:36:42.316Z,9.05
2023-04-30T07:39:09.272Z,9.38
2023-04-30T07:41:36.134Z,10.55
2023-04-30T07:44:03.303Z,9.57
2023-04-30T07:46:30.218Z,10.13
2023-04-30T07:48:57.095Z,9.25
2023-04-30T07:51:23.891Z,10.43
2023-04-30T07:53:53.240Z,10.52
2023-04-30T07:56:20.001Z,9.80
2023-04-30T07:58:46.800Z,10.40
2023-04-30T08:01:13.526Z,9.18
2023-04-30T08:03:40.547Z,12.85
2023-04-30T08:06:08.098Z,9.25
2023-04-30T08:08:34.834Z,10.30
2023-04-30T08:11:01.586Z,7.03
2023-04-30T08:13:28.275Z,8.55
2023-04-30T08:15:55.092Z,8.07
2023-04-30T08:18:22.079Z,8.50
2023-04-30T08:20:49.027Z,7.43
2023-04-30T08:23:17.123Z,7.93
2023-04-30T08:25:43.929Z,8.55
2023-04-30T08:28:10.742Z,8.57
2023-04-30T08:30:37.402Z,8.90
2023-04-30T08:33:04.273Z,8.75
2023-04-30T08:35:31.232Z,7.03
2023-04-30T08:37:58.487Z,14.77
2023-04-30T08:40:43.543Z,7.68
2023-04-30T08:43:15.677Z,7.20
2023-04-30T08:45:42.758Z,7.35
2023-04-30T08:48:15.837Z,9.50
2023-04-30T08:50:42.747Z,7.38
2023-04-30T08:53:11.556Z,6.40
2023-04-30T08:55:40.447Z,5.77
2023-04-30T08:58:10.544Z,7.75
2023-04-30T09:03:05.945Z,8.82
2023-04-30T09:05:32.718Z,6.63
2023-04-30T09:08:03.612Z,7.45
2023-04-30T09:10:34.899Z,8.10
2023-04-30T09:13:06.907Z,6.82
2023-04-30T09:15:35.759Z,6.30
2023-04-30T09:18:10.881Z,6.67
2023-04-30T09:20:38.333Z,9.15
2023-04-30T09:23:10.772Z,8.90
2023-04-30T09:25:42.512Z,9.45
2023-04-30T09:28:13.948Z,10.25
2023-04-30T09:30:41.942Z,8.15
2023-04-30T09:33:11.949Z,9.30
2023-04-30T09:35:42.132Z,11.00
2023-04-30T09:38:29.027Z,9.93
2023-04-30T09:40:57.861Z,11.48
2023-04-30T09:43:24.741Z,8.60
2023-04-30T09:45:52.760Z,8.90
2023-04-30T09:48:22.872Z,8.07
2023-04-30T09:50:51.060Z,6.80
2023-04-30T09:53:18.538Z,8.65
2023-04-30T09:55:50.279Z,8.05
2023-04-30T09:58:18.462Z,9.60
2023-04-30T10:00:46.476Z,8.60
2023-04-30T10:03:15.052Z,10.27
2023-04-30T10:05:44.453Z,10.32
2023-04-30T10:08:22.231Z,9.27
2023-04-30T10:10:52.910Z,9.82
2023-04-30T10:13:21.904Z,8.57
2023-04-30T10:15:54.480Z,7.35
2023-04-30T10:18:33.962Z,8.18
2023-04-30T10:21:04.048Z,6.00
2023-04-30T10:23:30.883Z,5.95
2023-04-30T10:25:58.465Z,9.98
2023-04-30T10:28:25.374Z,8.30
2023-04-30T10:30:52.506Z,8.82
2023-04-30T10:33:49.998Z,8.77
2023-04-30T10:36:42.610Z,9.88
2023-04-30T10:39:09.486Z,8.25
2023-04-30T10:41:36.245Z,7.65
2023-04-30T10:44:05.439Z,8.25
2023-04-30T10:46:35.899Z,8.00
2023-04-30T10:49:02.950Z,8.00
2023-04-30T10:51:48.592Z,8.73
2023-04-30T10:54:29.819Z,7.00
2023-04-30T10:57:19.441Z,8.57
2023-04-30T11:00:23.709Z,8.57
2023-04-30T11:02:56.768Z,7.70
2023-04-30T11:05:35.739Z,6.40
2023-04-30T11:08:02.611Z,7.40
2023-04-30T11:10:33.833Z,6.53
2023-04-30T11:13:07.916Z,24.83
2023-04-30T11:15:41.729Z,7.75
2023-04-30T11:18:09.936Z,5.35
2023-04-30T11:20:43.999Z,8.38
2023-04-30T11:23:28.184Z,7.68
2023-04-30T11:26:07.422Z,6.88
2023-04-30T11:28:37.916Z,7.03
2023-04-30T11:31:05.199Z,10.07
2023-04-30T11:33:35.261Z,7.22
2023-04-30T11:36:02.767Z,6.93
2023-04-30T11:38:37.627Z,6.68
2023-04-30T11:41:05.493Z,6.43
2023-04-30T11:43:34.206Z,6.15
2023-04-30T11:46:05.130Z,7.35
2023-04-30T11:48:39.800Z,7.35
2023-04-30T11:51:22.169Z,6.03
2023-04-30T11:53:51.686Z,5.70
2023-04-30T11:56:24.538Z,5.57
2023-04-30T11:58:55.906Z,7.22
2023-04-30T12:01:27.324Z,7.25
2023-04-30T12:03:57.708Z,5.43
2023-04-30T12:06:27.728Z,6.20
2023-04-30T12:08:59.404Z,6.07
2023-04-30T12:11:29.010Z,7.97
2023-04-30T12:16:29.076Z,6.50
2023-04-30T12:18:56.122Z,7.13
2023-04-30T12:21:23.252Z,6.18
2023-04-30T12:23:50.500Z,7.32
2023-04-30T12:26:17.971Z,6.00
2023-04-30T12:28:47.656Z,5.45
2023-04-30T12:31:14.415Z,8.38
2023-04-30T12:33:41.193Z,8.57
2023-04-30T12:36:11.383Z,6.90
2023-04-30T12:38:44.180Z,5.90
2023-04-30T12:41:15.573Z,6.80
2023-04-30T12:43:42.340Z,6.22
2023-04-30T12:46:09.214Z,6.30
2023-04-30T12:48:48.182Z,7.32
2023-04-30T12:51:20.222Z,7.85
2023-04-30T12:53:47.258Z,6.88
2023-04-30T12:56:17.860Z,6.78
2023-04-30T12:58:51.505Z,6.10
2023-04-30T13:01:23.189Z,6.63
2023-04-30T13:03:50.818Z,10.63
2023-04-30T13:06:18.070Z,6.30
2023-04-30T13:08:57.254Z,4.68
2023-04-30T13:11:27.010Z,4.25
2023-04-30T13:13:56.065Z,4.57
2023-04-30T13:16:24.857Z,7.78
2023-04-30T13:18:52.168Z,5.68
2023-04-30T13:21:18.916Z,3.33
2023-04-30T13:23:52.878Z,5.03
2023-04-30T13:26:22.258Z,5.32
2023-04-30T13:28:50.026Z,5.93
2023-04-30T13:31:17.262Z,5.18
2023-04-30T13:33:44.155Z,7.10
2023-04-30T13:36:11.135Z,3.85
2023-04-30T13:38:39.438Z,6.28
2023-04-30T13:41:06.829Z,4.05
2023-04-30T13:43:33.571Z,5.63
2023-04-30T13:46:00.328Z,6.43
2023-04-30T13:48:27.117Z,6.85
2023-04-30T13:50:54.306Z,3.90
2023-04-30T13:53:21.007Z,3.38
2023-04-30T13:55:47.756Z,6.03
2023-04-30T13:58:15.940Z,4.90
2023-04-30T14:00:42.701Z,6.22
2023-04-30T14:03:10.169Z,4.50
2023-04-30T14:05:37.582Z,6.30
2023-04-30T14:08:04.609Z,5.70
2023-04-30T14:10:31.780Z,6.00
2023-04-30T14:12:58.909Z,5.05
2023-04-30T14:15:25.717Z,8.30
2023-04-30T14:17:53.125Z,4.55
2023-04-30T14:20:19.904Z,5.18
2023-04-30T14:22:46.615Z,5.13
2023-04-30T14:25:13.603Z,4.85
2023-04-30T14:27:40.455Z,6.28
2023-04-30T14:30:08.111Z,4.38
2023-04-30T14:32:34.927Z,5.88
2023-04-30T14:35:02.766Z,6.85
2023-04-30T14:37:29.704Z,7.32
2023-04-30T14:39:56.764Z,5.22
2023-04-30T14:42:23.873Z,3.80
2023-04-30T14:44:50.615Z,5.47
2023-04-30T14:47:17.394Z,5.15
2023-04-30T14:49:44.111Z,4.63
2023-04-30T14:52:10.814Z,4.57
2023-04-30T14:54:37.803Z,4.50
2023-04-30T14:57:05.810Z,5.15
2023-04-30T14:59:35.030Z,4.32
2023-04-30T15:02:01.897Z,3.53
2023-04-30T15:04:28.747Z,4.55
2023-04-30T15:06:55.542Z,3.95
2023-04-30T15:09:22.409Z,5.45
2023-04-30T15:11:49.271Z,4.78
2023-04-30T15:14:17.412Z,4.25
2023-04-30T15:16:44.238Z,5.00
2023-04-30T15:19:10.965Z,4.20
2023-04-30T15:21:37.852Z,3.55
2023-04-30T15:24:05.382Z,4.10
2023-04-30T15:26:33.132Z,2.78
2023-04-30T15:29:00.048Z,4.70
2023-04-30T15:31:27.085Z,5.35
2023-04-30T15:33:53.879Z,5.20
2023-04-30T15:36:23.507Z,2.53
2023-04-30T15:38:50.456Z,3.80
2023-04-30T15:41:17.245Z,6.32
2023-04-30T15:43:44.024Z,3.47
2023-04-30T15:46:11.959Z,3.72
2023-04-30T15:48:38.853Z,3.13
2023-04-30T15:51:05.619Z,3.90
2023-04-30T15:53:32.459Z,3.40
2023-04-30T15:55:59.295Z,4.65
2023-04-30T15:58:26.221Z,3.50
2023-04-30T16:00:53.885Z,3.35
2023-04-30T16:03:20.893Z,5.28
2023-04-30T16:05:48.274Z,3.80
2023-04-30T16:08:15.251Z,2.90
2023-04-30T16:10:43.561Z,6.47
2023-04-30T16:13:10.292Z,3.65
2023-04-30T16:15:37.277Z,2.15
2023-04-30T16:18:04.089Z,4.13
2023-04-30T16:20:31.626Z,3.85
2023-04-30T16:22:58.535Z,3.25
2023-04-30T16:25:25.309Z,3.65
2023-04-30T16:27:53.116Z,4.55
2023-04-30T16:30:20.000Z,2.72
2023-04-30T16:32:46.864Z,3.13
2023-04-30T16:35:14.765Z,5.60
2023-04-30T16:37:41.693Z,3.60
2023-04-30T16:40:08.896Z,4.43
2023-04-30T16:42:36.061Z,3.70
2023-04-30T16:45:03.228Z,4.30
2023-04-30T16:47:30.237Z,3.95
2023-04-30T16:49:58.721Z,9.07
2023-04-30T16:52:25.881Z,4.63
2023-04-30T16:54:52.713Z,6.18
2023-04-30T16:57:19.796Z,6.22
2023-04-30T16:59:47.252Z,5.22
2023-04-30T17:02:14.111Z,8.23
2023-04-30T17:04:41.387Z,5.75
2023-04-30T17:07:08.680Z,8.35
2023-04-30T17:09:36.852Z,6.13
2023-04-30T17:12:05.487Z,4.82
2023-04-30T17:14:32.726Z,4.78
2023-04-30T17:16:59.530Z,4.97
2023-04-30T17:19:26.278Z,6.15
2023-04-30T17:21:53.314Z,6.75
2023-04-30T17:24:20.467Z,6.32
2023-04-30T17:26:48.024Z,7.25
2023-04-30T17:29:15.278Z,4.50
2023-04-30T17:31:42.866Z,5.00
2023-04-30T17:34:10.377Z,4.10
2023-04-30T17:36:37.704Z,4.15
2023-04-30T17:39:06.140Z,5.95
2023-04-30T17:41:33.595Z,5.50
2023-04-30T17:44:00.981Z,3.85
2023-04-30T17:46:28.569Z,5.40
2023-04-30T17:48:55.870Z,5.32
2023-04-30T17:51:23.117Z,5.85
2023-04-30T17:53:50.393Z,6.63
2023-04-30T17:56:18.524Z,5.75
2023-04-30T17:58:46.206Z,4.32
2023-04-30T18:01:13.991Z,4.70
2023-04-30T18:03:43.305Z,4.50
2023-04-30T18:06:11.017Z,6.30
2023-04-30T18:08:38.336Z,7.63
2023-04-30T18:11:05.484Z,8.15
2023-04-30T18:13:32.899Z,5.05
2023-04-30T18:16:00.251Z,6.03
2023-04-30T18:18:27.337Z,5.05
2023-04-30T18:20:54.486Z,8.35
2023-04-30T18:23:22.259Z,7.15
2023-04-30T18:25:49.505Z,5.95
2023-04-30T18:28:16.796Z,3.00
2023-04-30T18:30:43.603Z,8.90
2023-04-30T18:33:11.040Z,4.25
2023-04-30T18:35:38.157Z,3.75
2023-04-30T18:38:08.256Z,3.95
2023-04-30T18:43:01.897Z,6.88
2023-04-30T18:45:29.219Z,4.65
2023-04-30T18:47:56.032Z,7.47
2023-04-30T18:50:23.061Z,6.57
2023-04-30T18:52:50.362Z,3.60
2023-04-30T18:55:17.731Z,5.50
2023-04-30T18:57:45.146Z,5.82
2023-04-30T19:00:14.485Z,5.20
2023-04-30T19:02:41.505Z,6.03
2023-04-30T19:05:09.376Z,8.60
2023-04-30T19:07:36.337Z,6.78
2023-04-30T19:10:04.717Z,5.85
2023-04-30T19:12:32.696Z,10.90
2023-04-30T19:15:02.295Z,8.00
2023-04-30T19:17:29.671Z,6.82
2023-04-30T19:20:00.703Z,5.50
2023-04-30T19:22:27.660Z,9.60
2023-04-30T19:24:55.147Z,7.85
2023-04-30T19:27:22.088Z,7.28
2023-04-30T19:29:49.373Z,6.97
2023-04-30T19:32:16.579Z,9.88
2023-04-30T19:34:43.834Z,5.88
2023-04-30T19:37:12.321Z,7.20
2023-04-30T19:39:40.594Z,8.57
2023-04-30T19:42:11.376Z,7.47
2023-04-30T19:44:38.563Z,7.22
2023-04-30T19:47:05.417Z,7.70
2023-04-30T19:49:34.703Z,7.65
2023-04-30T19:52:02.741Z,8.60
2023-04-30T19:54:29.876Z,9.57
2023-04-30T19:56:57.986Z,11.48
2023-04-30T19:59:26.999Z,6.80
2023-04-30T20:01:54.691Z,8.07
2023-04-30T20:04:22.286Z,7.63
2023-04-30T20:06:56.563Z,6.93
2023-04-30T20:09:24.031Z,11.85
2023-04-30T20:11:52.253Z,10.43
2023-04-30T20:14:20.417Z,7.50
2023-04-30T20:16:54.468Z,8.98
2023-04-30T20:19:22.640Z,9.77
2023-04-30T20:21:50.148Z,11.70
2023-04-30T20:24:17.035Z,7.47
2023-04-30T20:26:43.949Z,6.68
2023-04-30T20:29:11.196Z,8.45
2023-04-30T20:31:38.351Z,8.95
2023-04-30T20:34:05.258Z,8.40
2023-04-30T20:36:32.720Z,8.43
2023-04-30T20:39:00.147Z,7.32
2023-04-30T20:41:28.456Z,10.27
2023-04-30T20:43:55.371Z,9.07
2023-04-30T20:46:24.490Z,8.52
2023-04-30T20:48:52.031Z,8.57
2023-04-30T20:51:20.247Z,9.63
2023-04-30T20:53:47.428Z,8.70
2023-04-30T20:56:14.222Z,8.88
2023-04-30T20:58:43.028Z,10.55
2023-04-30T21:01:10.068Z,10.88
2023-04-30T21:03:37.201Z,12.10
2023-04-30T21:06:05.382Z,12.43
2023-04-30T21:08:32.154Z,10.45
2023-04-30T21:10:58.897Z,13.00
2023-04-30T21:13:25.733Z,11.23
2023-04-30T21:15:53.516Z,12.23
2023-04-30T21:18:20.273Z,11.25
2023-04-30T21:20:47.017Z,11.63
2023-04-30T21:23:14.745Z,13.40
2023-04-30T21:25:41.516Z,9.85
2023-04-30T21:28:08.226Z,11.40
2023-04-30T21:30:36.453Z,10.90
2023-04-30T21:33:04.118Z,8.95
2023-04-30T21:35:33.189Z,12.60
2023-04-30T21:37:59.981Z,15.57
2023-04-30T21:40:26.741Z,10.40
2023-04-30T21:42:53.541Z,11.55
2023-04-30T21:45:20.356Z,9.93
2023-04-30T21:47:48.004Z,9.18
2023-04-30T21:50:15.042Z,11.43
2023-04-30T21:52:41.936Z,11.32
2023-04-30T21:55:09.795Z,10.20
2023-04-30T21:57:36.611Z,11.88
2023-04-30T22:00:06.929Z,13.02
2023-04-30T22:02:34.041Z,12.10
2023-04-30T22:05:01.048Z,10.40
2023-04-30T22:07:28.287Z,12.70
2023-04-30T22:09:55.185Z,10.65
2023-04-30T22:12:25.165Z,12.23
2023-04-30T22:14:55.750Z,10.55
2023-04-30T22:17:22.941Z,12.23
2023-04-30T22:19:49.752Z,10.52
2023-04-30T22:22:16.785Z,12.32
2023-04-30T22:24:43.538Z,13.38
2023-04-30T22:27:10.259Z,11.57
2023-04-30T22:29:37.128Z,12.63
2023-04-30T22:32:04.835Z,12.63
2023-04-30T22:34:38.085Z,12.60
2023-04-30T22:37:05.272Z,11.45
2023-04-30T22:39:32.149Z,13.50
2023-04-30T22:41:59.249Z,10.93
2023-04-30T22:44:26.633Z,12.43
2023-04-30T22:46:56.731Z,10.05
2023-04-30T22:51:58.858Z,10.95
2023-04-30T22:54:25.805Z,13.38
2023-04-30T22:56:52.597Z,13.15
2023-04-30T22:59:19.552Z,11.50
2023-04-30T23:03:33.984Z,10.35
2023-04-30T23:06:00.816Z,10.57
2023-04-30T23:08:27.653Z,11.38
2023-04-30T23:10:55.752Z,11.98
2023-04-30T23:13:23.003Z,11.80
2023-04-30T23:15:49.894Z,14.38
2023-04-30T23:18:17.855Z,10.88
2023-04-30T23:20:44.631Z,11.85
2023-04-30T23:23:11.462Z,11.65
2023-04-30T23:25:38.414Z,10.27
2023-04-30T23:28:05.347Z,11.68
2023-04-30T23:30:32.111Z,11.10
2023-04-30T23:32:58.930Z,11.18
2023-04-30T23:35:25.665Z,11.70
2023-04-30T23:37:52.395Z,10.93
2023-04-30T23:40:20.125Z,12.23
2023-04-30T23:42:46.970Z,11.52
2023-04-30T23:45:13.771Z,10.50
2023-04-30T23:47:40.553Z,14.48
2023-04-30T23:50:08.056Z,12.43
2023-04-30T23:52:35.947Z,11.00
2023-04-30T23:55:03.265Z,12.57
2023-04-30T23:57:29.945Z,12.82
2023-04-30T23:59:57.275Z,13.52
